Nearby METAR Reports

KLWM - Lawrence,MA, USA
Distance from station: NE 12mi, 19km
Updated: Sun, 22-Jul-2018 9:13pm EDT
Light rain, Overcast
Light rain, Overcast
 Wind from ESE
Wind: ESE 6 mph , 9 km/h
Temperature: 75°F , 24°C
Dew Point: 70°F , 21°C
Humidity: 83%
Barometer: 30.18 inHg , 1022 hPa
Summary: Light Rain
Clouds: Overcast
Visibility: 10 miles , 16 km
Cloud details: Mostly Cloudy 3000 ft
Mostly Cloudy 5000 ft
Overcast 6000 ft
2018/07/23 01:13 KLWM 230113Z 11005KT 10SM -RA BKN030 BKN050 OVC060 24/21 A3018 RMK AO2 RAB12 P0000 T02390206 $
KBED - Bedford,MA, USA
Distance from station: SSE 12mi, 19km
Updated: Sun, 22-Jul-2018 8:56pm EDT
Overcast
Overcast
 Wind from calm
Wind: Calm
Temperature: 75°F , 24°C
Dew Point: 70°F , 21°C
Humidity: 83%
Barometer: 30.14 inHg , 1020.7 hPa
Clouds: Overcast
Visibility: 10 miles , 16 km
Cloud details: Mostly Cloudy 2000 ft
Mostly Cloudy 2700 ft
Overcast 3600 ft
2018/07/23 00:56 KBED 230056Z 00000KT 10SM BKN020 BKN027 OVC036 24/21 A3014 RMK AO2 RAB15E40 SLP215 P0001 T02390211

Metar display script from Saratoga-Weather.org